createdAt,value
2022-10-23T00:01:26.683Z,100.00
2022-10-23T00:04:01.513Z,100.00
2022-10-23T00:06:30.176Z,100.00
2022-10-23T00:08:58.210Z,100.00
2022-10-23T00:11:32.218Z,100.00
2022-10-23T00:14:06.050Z,100.00
2022-10-23T00:16:33.329Z,100.00
2022-10-23T00:19:00.174Z,100.00
2022-10-23T00:21:26.827Z,100.00
2022-10-23T00:23:53.543Z,100.00
2022-10-23T00:26:20.519Z,100.00
2022-10-23T00:28:50.988Z,100.00
2022-10-23T00:31:19.211Z,100.00
2022-10-23T00:33:46.580Z,100.00
2022-10-23T00:36:15.994Z,100.00
2022-10-23T00:38:42.711Z,100.00
2022-10-23T00:41:14.485Z,100.00
2022-10-23T00:44:01.463Z,100.00
2022-10-23T00:46:28.743Z,100.00
2022-10-23T00:48:56.004Z,100.00
2022-10-23T00:51:22.941Z,100.00
2022-10-23T00:54:01.227Z,100.00
2022-10-23T00:56:42.098Z,100.00
2022-10-23T00:59:08.757Z,100.00
2022-10-23T01:01:35.535Z,100.00
2022-10-23T01:04:03.514Z,100.00
2022-10-23T01:06:43.087Z,100.00
2022-10-23T01:09:19.176Z,100.00
2022-10-23T01:11:56.630Z,100.00
2022-10-23T01:14:52.264Z,100.00
2022-10-23T01:17:21.804Z,100.00
2022-10-23T01:20:07.095Z,100.00
2022-10-23T01:23:05.012Z,100.00
2022-10-23T01:26:01.920Z,100.00
2022-10-23T01:28:40.649Z,100.00
2022-10-23T01:31:14.495Z,100.00
2022-10-23T01:33:58.898Z,100.00
2022-10-23T01:36:29.012Z,100.00
2022-10-23T01:41:46.368Z,100.00
2022-10-23T01:44:41.472Z,100.00
2022-10-23T01:47:11.471Z,100.00
2022-10-23T01:49:41.225Z,100.00
2022-10-23T01:52:12.833Z,100.00
2022-10-23T01:54:42.970Z,100.00
2022-10-23T01:57:13.024Z,100.00
2022-10-23T01:59:44.521Z,100.00
2022-10-23T02:02:13.197Z,100.00
2022-10-23T02:04:45.713Z,100.00
2022-10-23T02:07:12.314Z,100.00
2022-10-23T02:09:39.457Z,100.00
2022-10-23T02:12:11.820Z,100.00
2022-10-23T02:14:50.151Z,100.00
2022-10-23T02:17:26.402Z,100.00
2022-10-23T02:20:07.393Z,100.00
2022-10-23T02:22:49.106Z,100.00
2022-10-23T02:25:20.623Z,100.00
2022-10-23T02:27:50.940Z,100.00
2022-10-23T02:30:19.341Z,100.00
2022-10-23T02:32:53.470Z,100.00
2022-10-23T02:35:22.155Z,100.00
2022-10-23T02:37:58.504Z,100.00
2022-10-23T02:40:33.514Z,100.00
2022-10-23T02:43:18.810Z,100.00
2022-10-23T02:46:03.193Z,100.00
2022-10-23T02:48:41.304Z,100.00
2022-10-23T02:51:37.182Z,100.00
2022-10-23T02:54:16.658Z,100.00
2022-10-23T02:56:57.821Z,100.00
2022-10-23T02:59:42.995Z,100.00
2022-10-23T03:02:16.909Z,100.00
2022-10-23T03:04:44.305Z,100.00
2022-10-23T03:07:13.489Z,100.00
2022-10-23T03:09:40.094Z,100.00
2022-10-23T03:12:06.630Z,100.00
2022-10-23T03:14:33.173Z,100.00
2022-10-23T03:16:59.675Z,100.00
2022-10-23T03:19:26.346Z,100.00
2022-10-23T03:21:52.874Z,100.00
2022-10-23T03:24:19.421Z,100.00
2022-10-23T03:26:46.163Z,100.00
2022-10-23T03:29:12.582Z,100.00
2022-10-23T03:31:39.049Z,100.00
2022-10-23T03:34:10.165Z,100.00
2022-10-23T03:36:37.518Z,100.00
2022-10-23T03:39:04.388Z,100.00
2022-10-23T03:41:31.342Z,100.00
2022-10-23T03:43:58.186Z,100.00
2022-10-23T03:46:24.829Z,100.00
2022-10-23T03:48:51.257Z,100.00
2022-10-23T03:51:17.717Z,100.00
2022-10-23T03:53:44.221Z,100.00
2022-10-23T03:56:10.761Z,100.00
2022-10-23T03:58:37.306Z,100.00
2022-10-23T04:01:03.974Z,100.00
2022-10-23T04:03:30.460Z,100.00
2022-10-23T04:05:56.876Z,100.00
2022-10-23T04:08:23.432Z,100.00
2022-10-23T04:10:49.909Z,100.00
2022-10-23T04:13:16.377Z,100.00
2022-10-23T04:15:51.919Z,100.00
2022-10-23T04:18:19.478Z,100.00
2022-10-23T04:20:49.387Z,100.00
2022-10-23T04:23:16.922Z,100.00
2022-10-23T04:25:43.568Z,100.00
2022-10-23T04:28:10.143Z,99.45
2022-10-23T04:30:36.672Z,100.00
2022-10-23T04:33:03.472Z,100.00
2022-10-23T04:35:30.039Z,100.00
2022-10-23T04:37:56.607Z,100.00
2022-10-23T04:40:23.067Z,100.00
2022-10-23T04:42:49.568Z,100.00
2022-10-23T04:45:16.032Z,100.00
2022-10-23T04:47:42.559Z,100.00
2022-10-23T04:50:09.187Z,100.00
2022-10-23T04:52:35.707Z,100.00
2022-10-23T04:55:02.183Z,100.00
2022-10-23T04:57:28.668Z,99.67
2022-10-23T04:59:55.129Z,99.72
2022-10-23T05:02:21.641Z,100.00
2022-10-23T05:04:48.172Z,100.00
2022-10-23T05:07:14.773Z,100.00
2022-10-23T05:09:41.444Z,100.00
2022-10-23T05:12:08.632Z,100.00
2022-10-23T05:14:35.139Z,100.00
2022-10-23T05:17:07.528Z,100.00
2022-10-23T05:19:40.330Z,100.00
2022-10-23T05:22:07.137Z,100.00
2022-10-23T05:24:33.567Z,100.00
2022-10-23T05:27:00.097Z,100.00
2022-10-23T05:29:26.638Z,100.00
2022-10-23T05:31:56.823Z,100.00
2022-10-23T05:34:26.360Z,100.00
2022-10-23T05:36:53.306Z,100.00
2022-10-23T05:39:20.678Z,100.00
2022-10-23T05:41:47.331Z,100.00
2022-10-23T05:44:13.874Z,100.00
2022-10-23T05:46:43.871Z,100.00
2022-10-23T05:49:10.590Z,100.00
2022-10-23T05:51:38.842Z,100.00
2022-10-23T05:54:08.286Z,100.00
2022-10-23T07:17:33.216Z,100.00
2022-10-23T07:19:59.756Z,100.00
2022-10-23T07:38:40.394Z,100.00
2022-10-23T07:41:09.030Z,100.00
2022-10-23T07:43:39.683Z,100.00
2022-10-23T07:46:08.330Z,100.00
2022-10-23T07:48:34.804Z,100.00
2022-10-23T07:51:08.084Z,100.00
2022-10-23T07:53:52.705Z,100.00
2022-10-23T07:57:23.525Z,100.00
2022-10-23T07:59:50.105Z,100.00
2022-10-23T08:02:36.982Z,100.00
2022-10-23T08:05:04.082Z,100.00
2022-10-23T08:07:33.405Z,100.00
2022-10-23T08:09:59.858Z,100.00
2022-10-23T08:12:26.541Z,100.00
2022-10-23T08:14:53.179Z,100.00
2022-10-23T08:17:19.762Z,100.00
2022-10-23T08:19:48.457Z,100.00
2022-10-23T08:22:15.121Z,100.00
2022-10-23T08:24:41.695Z,99.56
2022-10-23T08:27:29.366Z,99.82
2022-10-23T08:29:55.816Z,96.53
2022-10-23T08:32:22.359Z,97.93
2022-10-23T09:02:21.089Z,95.22
2022-10-23T09:17:05.758Z,94.35
2022-10-23T09:19:32.374Z,93.81
2022-10-23T09:21:59.295Z,91.33
2022-10-23T09:24:34.221Z,89.48
2022-10-23T09:27:01.025Z,91.43
2022-10-23T09:29:27.546Z,91.96
2022-10-23T09:32:14.645Z,90.56
2022-10-23T09:34:55.518Z,91.00
2022-10-23T09:37:35.700Z,90.09
2022-10-23T09:40:14.711Z,90.11
2022-10-23T09:42:58.511Z,89.82
2022-10-23T09:45:33.407Z,89.16
2022-10-23T09:48:11.360Z,89.70
2022-10-23T09:51:05.078Z,90.35
2022-10-23T09:53:37.244Z,92.38
2022-10-23T09:56:27.375Z,88.10
2022-10-23T09:59:05.934Z,85.71
2022-10-23T10:01:36.488Z,86.25
2022-10-23T10:04:07.322Z,85.72
2022-10-23T10:06:56.956Z,88.79
2022-10-23T10:09:23.571Z,85.29
2022-10-23T10:11:58.418Z,82.59
2022-10-23T10:21:48.433Z,86.66
2022-10-23T10:24:23.822Z,86.48
2022-10-23T10:27:19.095Z,86.06
2022-10-23T10:30:04.494Z,83.38
2022-10-23T10:33:01.463Z,82.61
2022-10-23T10:35:48.760Z,89.49
2022-10-23T10:38:30.565Z,80.81
2022-10-23T10:41:21.545Z,77.36
2022-10-23T10:44:06.442Z,81.22
2022-10-23T10:46:58.053Z,82.93
2022-10-23T10:49:34.937Z,81.05
2022-10-23T10:52:22.008Z,81.50
2022-10-23T10:55:09.335Z,77.77
2022-10-23T10:58:13.182Z,77.61
2022-10-23T11:00:42.082Z,77.27
2022-10-23T11:03:20.460Z,81.66
2022-10-23T11:05:56.266Z,78.41
2022-10-23T11:08:44.386Z,81.23
2022-10-23T11:11:26.881Z,76.07
2022-10-23T11:13:54.209Z,76.71
2022-10-23T11:16:27.530Z,76.78
2022-10-23T11:19:16.407Z,79.32
2022-10-23T11:21:47.976Z,79.75
2022-10-23T11:24:59.325Z,75.41
2022-10-23T11:27:46.928Z,77.00
2022-10-23T11:30:19.497Z,75.23
2022-10-23T11:33:01.123Z,78.43
2022-10-23T11:35:42.962Z,77.32
2022-10-23T11:38:30.281Z,77.29
2022-10-23T11:41:03.702Z,75.98
2022-10-23T11:43:47.528Z,80.84
2022-10-23T11:46:35.755Z,80.52
2022-10-23T11:49:06.232Z,80.85
2022-10-23T11:51:37.130Z,80.80
2022-10-23T11:54:33.576Z,80.16
2022-10-23T11:57:15.156Z,77.12
2022-10-23T11:59:47.721Z,79.22
2022-10-23T12:02:28.255Z,80.42
2022-10-23T12:04:55.528Z,79.28
2022-10-23T12:07:32.194Z,75.87
2022-10-23T12:10:06.620Z,75.25
2022-10-23T12:12:41.085Z,77.76
2022-10-23T12:15:14.720Z,78.28
2022-10-23T12:17:43.815Z,75.04
2022-10-23T12:20:10.839Z,73.12
2022-10-23T12:22:52.511Z,72.41
2022-10-23T12:25:43.580Z,73.05
2022-10-23T12:28:25.377Z,71.31
2022-10-23T12:31:13.692Z,73.41
2022-10-23T12:33:49.835Z,74.89
2022-10-23T12:36:40.322Z,75.90
2022-10-23T12:39:27.324Z,78.36
2022-10-23T12:41:56.557Z,78.50
2022-10-23T12:44:25.399Z,75.26
2022-10-23T12:46:57.485Z,75.04
2022-10-23T12:49:47.287Z,77.12
2022-10-23T12:52:26.887Z,86.47
2022-10-23T12:54:53.527Z,81.43
2022-10-23T12:57:26.453Z,79.28
2022-10-23T13:00:04.665Z,79.01
2022-10-23T13:02:32.464Z,80.42
2022-10-23T13:05:02.638Z,83.44
2022-10-23T13:07:32.122Z,83.57
2022-10-23T13:10:00.133Z,85.88
2022-10-23T13:12:33.047Z,79.69
2022-10-23T13:15:16.760Z,78.29
2022-10-23T13:17:59.653Z,84.84
2022-10-23T13:20:30.107Z,83.39
2022-10-23T13:23:16.524Z,86.81
2022-10-23T13:25:45.754Z,87.95
2022-10-23T13:28:24.260Z,86.04
2022-10-23T13:31:28.038Z,85.79
2022-10-23T13:34:21.226Z,86.48
2022-10-23T13:37:02.065Z,89.12
2022-10-23T13:39:31.212Z,89.11
2022-10-23T13:42:09.963Z,88.40
2022-10-23T13:44:37.736Z,87.02
2022-10-23T13:47:04.730Z,85.86
2022-10-23T13:49:31.470Z,86.25
2022-10-23T13:51:58.514Z,87.20
2022-10-23T13:56:58.486Z,85.48
2022-10-23T13:59:25.006Z,86.10
2022-10-23T14:01:52.730Z,86.95
2022-10-23T14:04:47.490Z,87.34
2022-10-23T14:07:16.635Z,88.47
2022-10-23T14:09:44.242Z,90.89
2022-10-23T14:15:57.616Z,88.16
2022-10-23T14:18:24.751Z,86.01
2022-10-23T14:20:51.668Z,87.77
2022-10-23T14:23:24.125Z,85.74
2022-10-23T14:26:04.837Z,88.33
2022-10-23T14:28:32.159Z,88.85
2022-10-23T14:31:14.819Z,92.12
2022-10-23T14:37:10.723Z,88.29
2022-10-23T14:40:27.319Z,90.52
2022-10-23T14:42:53.867Z,90.56
2022-10-23T14:45:20.523Z,91.08
2022-10-23T14:48:01.978Z,90.19
2022-10-23T14:50:28.882Z,91.82
2022-10-23T14:52:55.502Z,90.36
2022-10-23T14:55:22.048Z,91.00
2022-10-23T14:57:48.916Z,90.27
2022-10-23T15:00:15.860Z,90.31
2022-10-23T15:02:51.848Z,92.32
2022-10-23T15:05:18.705Z,91.95
2022-10-23T15:07:50.263Z,91.18
2022-10-23T15:10:37.158Z,92.91
2022-10-23T15:13:24.603Z,92.98
2022-10-23T15:15:57.745Z,92.69
2022-10-23T15:18:27.427Z,91.49
2022-10-23T15:28:17.073Z,95.13
2022-10-23T15:30:57.125Z,94.62
2022-10-23T15:33:24.947Z,95.69
2022-10-23T15:35:55.528Z,94.01
2022-10-23T15:38:35.538Z,94.13
2022-10-23T15:41:17.204Z,93.86
2022-10-23T15:43:44.114Z,94.31
2022-10-23T15:46:11.103Z,94.05
2022-10-23T15:48:37.855Z,95.34
2022-10-23T15:51:06.457Z,95.90
2022-10-23T15:53:44.202Z,97.02
2022-10-23T16:00:59.380Z,99.08
2022-10-23T16:19:22.473Z,99.99
2022-10-23T16:22:25.078Z,98.80
2022-10-23T16:25:27.325Z,99.12
2022-10-23T20:59:26.962Z,94.80
2022-10-23T21:29:13.728Z,97.19
2022-10-23T21:32:02.984Z,96.46
2022-10-23T22:15:33.705Z,96.86
2022-10-23T22:19:03.537Z,95.94
2022-10-23T22:27:50.551Z,94.09
2022-10-23T22:30:30.141Z,93.99
2022-10-23T22:32:57.437Z,94.17
2022-10-23T22:36:21.788Z,94.07
2022-10-23T22:39:21.579Z,92.59
2022-10-23T22:41:51.146Z,93.23
2022-10-23T22:44:18.375Z,92.82
2022-10-23T22:46:48.188Z,91.68
2022-10-23T22:53:00.986Z,92.28
2022-10-23T22:55:40.508Z,91.96
2022-10-23T22:58:20.441Z,92.81
2022-10-23T23:01:19.330Z,93.77
2022-10-23T23:06:33.780Z,96.72
2022-10-23T23:11:52.978Z,97.34
2022-10-23T23:14:25.409Z,98.95
2022-10-23T23:16:53.773Z,99.63
2022-10-23T23:19:34.633Z,100.00
2022-10-23T23:22:21.887Z,100.00
2022-10-23T23:24:48.351Z,100.00
2022-10-23T23:27:14.897Z,100.00
2022-10-23T23:29:43.150Z,100.00
2022-10-23T23:32:16.274Z,100.00
2022-10-23T23:34:43.121Z,100.00
2022-10-23T23:37:09.720Z,100.00
2022-10-23T23:39:36.167Z,100.00
2022-10-23T23:42:02.705Z,100.00
2022-10-23T23:44:29.250Z,100.00
2022-10-23T23:46:56.050Z,100.00
2022-10-23T23:49:22.567Z,100.00
2022-10-23T23:51:49.285Z,100.00
2022-10-23T23:54:16.125Z,100.00
2022-10-23T23:56:42.765Z,100.00
2022-10-23T23:59:09.368Z,100.00
